TENO2: Tenkiller Lake

Data processed at Sun May 20 2018 14:30


All information presented herein is the property of the government of the United States of America and may be revised or deleted at any time without prior notice.
Dissemination of this information without the expressed written consent of the Public Affairs Office, Tulsa District U.S. Army Corps of Engineers is strictly prohibited.
These data are gathered electronically and, as presented, have not undergone any form of quality control. These data are not guaranteed to be valid or correct.
Go to home page.
Go to station list.

Upstream stations:

Downstream station:
Previous Day
Next Day
Current Day
    
SHEF ID:       TENO2     Tenkiller Lake
STATION TYPE:  Reservoir
Normal Pool:  Bottom =   594.50, Top =   632.00

               PRECIP PRECIP(A) ELEVATION   STORAGE   TW-ELEV    INFLOW   RELEASE  AIR-TEMP  WIND-DIRWIND-SPEED REL-HUMID SOLAR-RAD   VOLTAGE  BAT-LOAD
                   in        in        ft     ac-ft        ft       cfs       cfs         F       deg       mph         %      W/m2      volt      volt
              Ccp-Rev   Ccp-Rev   Ccp-Rev   Ccp-Rev   Ccp-Rev  Regi-Rev  Regi-Rev   Ccp-Rev   Ccp-Rev   Ccp-Rev   Ccp-Rev   Ccp-Rev   Ccp-Rev   Ccp-Rev
(US/Central)
05/18 00:00      0.00      0.00    633.06    682709    482.25      1929        15     65.26    141.40      0.40    100.35      1.00     13.77     13.18
05/18 01:00      0.01      0.00    633.06    682709    482.25      1929        15     64.27    156.00      0.37    100.35      1.00     13.77     13.24
05/18 02:00      0.00      0.00    633.09    683104    482.25      1291        15     63.72    131.60      0.40    100.35      0.00     13.77     13.24
05/18 03:00      0.00      0.00    633.09    683104    482.25      1291        15     63.39    133.60      0.36    100.35      0.00     13.77     13.18
05/18 04:00      0.01      0.00    633.10    683236    482.24      1929        15     67.68    124.00      0.24     93.21      0.00     13.77     13.24
05/18 05:00      0.00      0.00    633.10    683236    482.24      1291        15     65.80     65.30      0.18     97.42      0.00     13.77     13.30
05/18 06:00      0.01      0.00    633.12    683500    482.23      1291        15     64.17    208.30      0.22     99.74      0.00     13.77     13.30
05/18 07:00      0.00      0.00    633.13    683632    482.23      1048        15     65.93    199.90      0.11     92.36      9.00     13.77     13.24
05/18 08:00      0.00      0.00    633.13    683632    482.23      1045        15     70.54     77.00      0.79     82.04    104.00     13.78     13.24
05/18 09:00      0.01      0.00    633.15    683895    482.22      -901      -901     73.06     89.70      1.23     76.97    260.00     13.77     13.24
05/18 10:00      0.00      0.00    633.16    684027    482.22      -901      -901     76.24    104.60      1.14     71.36    547.00     13.77     13.18
05/18 11:00      0.01      0.00    633.17    684159    482.22      -901      -901     78.78    107.10      0.98     68.37    693.00     13.77     13.18
05/18 12:00      0.01      0.00    633.16    684027    483.56      -901      -901     80.53     94.90      1.68     65.44    815.00     13.77     13.12
05/18 13:00      0.00      0.00    633.16    684027    487.05      -901      -901     82.29    108.80      1.52     59.39    884.00     13.77     13.18
05/18 14:00      0.01      0.00    633.16    684027    487.12      -901      -901     83.61    127.10      0.93     50.73    901.00     13.77     13.18
05/18 15:00      0.00      0.00    633.14    683763    487.08      -901      -901     84.70    122.70      1.09     45.84    859.00     13.77     13.12
05/18 16:00      0.01      0.00    633.13    683632    487.14      -901      -901     85.80    127.60      1.33     44.87    759.00     13.77     13.12
05/18 17:00      0.00      0.00    633.13    683632    487.15      -901      -901     86.58    111.30      1.27     49.57    615.00     13.77     13.12
05/18 18:00      0.01      0.00    633.12    683500    487.11      -901      -901     86.25    106.30      1.07     47.25    397.00     13.78     13.12
05/18 19:00      0.00      0.00    633.11    683368    487.15      -901      -901     85.26    101.30      0.93     51.15    182.00     13.77     13.12
05/18 20:00      0.01      0.00    633.10    683236    486.53      -901      -901     78.89    104.50      0.46     74.04     31.00     13.77     13.18
05/18 21:00      0.00      0.00    633.10    683236    482.64      -901      -901     74.26    203.30      0.31     92.48      2.00     13.77     13.24
05/18 22:00      0.00      0.00    633.11    683368    482.31      -901      -901     71.96    188.60      0.39     98.40      1.00     13.77     13.18
05/18 23:00      0.01      0.00    633.13    683632    482.26      -901      -901     73.40    181.90      0.22     86.25      1.00     13.78     13.24